sensor_id;sensor_type;location;lat;lon;timestamp;P1;durP1;ratioP1;P2;durP2;ratioP2
62673;SDS011;62269;47.594;17.638;2022-10-16T00:00:07;17.37;;;11.52;;
62673;SDS011;62269;47.594;17.638;2022-10-16T00:00:54;13.50;;;10.50;;
62673;SDS011;62269;47.594;17.638;2022-10-16T00:01:41;15.80;;;10.70;;
62673;SDS011;62269;47.594;17.638;2022-10-16T00:02:28;12.15;;;10.70;;
62673;SDS011;62269;47.594;17.638;2022-10-16T00:03:15;12.98;;;10.70;;
62673;SDS011;62269;47.594;17.638;2022-10-16T00:04:02;12.05;;;10.57;;
62673;SDS011;62269;47.594;17.638;2022-10-16T00:04:50;14.23;;;10.68;;
62673;SDS011;62269;47.594;17.638;2022-10-16T00:05:40;12.65;;;11.15;;
62673;SDS011;62269;47.594;17.638;2022-10-16T00:06:29;15.60;;;11.70;;
62673;SDS011;62269;47.594;17.638;2022-10-16T00:07:16;12.30;;;10.35;;
62673;SDS011;62269;47.594;17.638;2022-10-16T00:08:03;11.50;;;10.30;;
62673;SDS011;62269;47.594;17.638;2022-10-16T00:08:50;11.65;;;10.32;;
62673;SDS011;62269;47.594;17.638;2022-10-16T00:09:37;13.52;;;10.80;;
62673;SDS011;62269;47.594;17.638;2022-10-16T00:10:24;11.85;;;10.65;;
62673;SDS011;62269;47.594;17.638;2022-10-16T00:11:16;11.90;;;10.68;;
62673;SDS011;62269;47.594;17.638;2022-10-16T00:12:04;13.80;;;11.25;;
62673;SDS011;62269;47.594;17.638;2022-10-16T00:12:53;12.35;;;11.05;;
62673;SDS011;62269;47.594;17.638;2022-10-16T00:13:40;14.00;;;10.98;;
62673;SDS011;62269;47.594;17.638;2022-10-16T00:14:28;17.62;;;11.05;;
62673;SDS011;62269;47.594;17.638;2022-10-16T00:15:15;12.95;;;10.82;;
62673;SDS011;62269;47.594;17.638;2022-10-16T00:16:03;13.65;;;10.82;;
62673;SDS011;62269;47.594;17.638;2022-10-16T00:16:50;12.93;;;10.80;;
62673;SDS011;62269;47.594;17.638;2022-10-16T00:17:37;14.13;;;11.38;;
62673;SDS011;62269;47.594;17.638;2022-10-16T00:18:24;12.65;;;11.23;;
62673;SDS011;62269;47.594;17.638;2022-10-16T00:19:11;16.98;;;10.80;;
62673;SDS011;62269;47.594;17.638;2022-10-16T00:19:58;17.60;;;11.25;;
62673;SDS011;62269;47.594;17.638;2022-10-16T00:20:45;13.18;;;10.73;;
62673;SDS011;62269;47.594;17.638;2022-10-16T00:21:32;15.07;;;10.80;;
62673;SDS011;62269;47.594;17.638;2022-10-16T00:22:20;15.98;;;12.43;;
62673;SDS011;62269;47.594;17.638;2022-10-16T00:23:06;12.85;;;11.12;;
62673;SDS011;62269;47.594;17.638;2022-10-16T00:24:04;15.52;;;11.65;;
62673;SDS011;62269;47.594;17.638;2022-10-16T00:24:52;14.00;;;11.12;;
62673;SDS011;62269;47.594;17.638;2022-10-16T00:25:39;15.25;;;11.25;;
62673;SDS011;62269;47.594;17.638;2022-10-16T00:26:27;14.68;;;11.20;;
62673;SDS011;62269;47.594;17.638;2022-10-16T00:27:15;16.58;;;12.27;;
62673;SDS011;62269;47.594;17.638;2022-10-16T00:28:03;13.27;;;11.35;;
62673;SDS011;62269;47.594;17.638;2022-10-16T00:28:50;14.38;;;11.00;;
62673;SDS011;62269;47.594;17.638;2022-10-16T00:29:38;16.92;;;11.63;;
62673;SDS011;62269;47.594;17.638;2022-10-16T00:30:24;14.45;;;10.93;;
62673;SDS011;62269;47.594;17.638;2022-10-16T00:31:14;13.13;;;11.23;;
62673;SDS011;62269;47.594;17.638;2022-10-16T00:32:01;16.45;;;12.05;;
62673;SDS011;62269;47.594;17.638;2022-10-16T00:32:48;13.75;;;10.70;;
62673;SDS011;62269;47.594;17.638;2022-10-16T00:33:36;12.50;;;11.05;;
62673;SDS011;62269;47.594;17.638;2022-10-16T00:34:23;16.23;;;11.70;;
62673;SDS011;62269;47.594;17.638;2022-10-16T00:35:10;16.70;;;12.07;;
62673;SDS011;62269;47.594;17.638;2022-10-16T00:35:58;16.12;;;10.80;;
62673;SDS011;62269;47.594;17.638;2022-10-16T00:36:46;12.73;;;11.43;;
62673;SDS011;62269;47.594;17.638;2022-10-16T00:37:33;14.25;;;11.18;;
62673;SDS011;62269;47.594;17.638;2022-10-16T00:38:20;14.55;;;10.60;;
62673;SDS011;62269;47.594;17.638;2022-10-16T00:39:07;12.93;;;11.60;;
62673;SDS011;62269;47.594;17.638;2022-10-16T00:39:54;14.23;;;10.90;;
62673;SDS011;62269;47.594;17.638;2022-10-16T00:40:41;12.63;;;11.25;;
62673;SDS011;62269;47.594;17.638;2022-10-16T00:41:28;15.00;;;11.25;;
62673;SDS011;62269;47.594;17.638;2022-10-16T00:42:15;12.43;;;10.60;;
62673;SDS011;62269;47.594;17.638;2022-10-16T00:44:44;12.68;;;10.48;;
62673;SDS011;62269;47.594;17.638;2022-10-16T00:45:31;14.45;;;10.95;;
62673;SDS011;62269;47.594;17.638;2022-10-16T00:47:12;13.52;;;10.13;;
62673;SDS011;62269;47.594;17.638;2022-10-16T00:48:13;12.25;;;10.38;;
62673;SDS011;62269;47.594;17.638;2022-10-16T00:49:10;13.93;;;10.52;;
62673;SDS011;62269;47.594;17.638;2022-10-16T00:51:14;12.52;;;10.38;;
62673;SDS011;62269;47.594;17.638;2022-10-16T00:52:01;12.95;;;11.25;;
62673;SDS011;62269;47.594;17.638;2022-10-16T00:52:48;12.05;;;10.73;;
62673;SDS011;62269;47.594;17.638;2022-10-16T00:53:36;14.63;;;10.95;;
62673;SDS011;62269;47.594;17.638;2022-10-16T00:54:25;14.95;;;11.52;;
62673;SDS011;62269;47.594;17.638;2022-10-16T00:55:13;13.75;;;11.40;;
62673;SDS011;62269;47.594;17.638;2022-10-16T00:56:00;11.98;;;10.68;;
62673;SDS011;62269;47.594;17.638;2022-10-16T00:56:47;14.43;;;11.85;;
62673;SDS011;62269;47.594;17.638;2022-10-16T00:57:34;12.65;;;10.70;;
62673;SDS011;62269;47.594;17.638;2022-10-16T00:58:22;14.95;;;10.68;;
62673;SDS011;62269;47.594;17.638;2022-10-16T00:59:16;15.00;;;10.98;;
62673;SDS011;62269;47.594;17.638;2022-10-16T01:00:13;12.18;;;10.73;;
62673;SDS011;62269;47.594;17.638;2022-10-16T01:01:02;11.90;;;10.30;;
62673;SDS011;62269;47.594;17.638;2022-10-16T01:01:49;12.57;;;11.12;;
62673;SDS011;62269;47.594;17.638;2022-10-16T01:02:36;17.70;;;11.50;;
62673;SDS011;62269;47.594;17.638;2022-10-16T01:04:13;14.35;;;10.77;;
62673;SDS011;62269;47.594;17.638;2022-10-16T01:05:00;12.73;;;10.77;;
62673;SDS011;62269;47.594;17.638;2022-10-16T01:05:50;14.87;;;10.98;;
62673;SDS011;62269;47.594;17.638;2022-10-16T01:08:12;12.68;;;11.45;;
62673;SDS011;62269;47.594;17.638;2022-10-16T01:10:57;14.17;;;10.37;;
62673;SDS011;62269;47.594;17.638;2022-10-16T01:11:57;15.82;;;10.60;;
62673;SDS011;62269;47.594;17.638;2022-10-16T01:13:35;13.57;;;11.30;;
62673;SDS011;62269;47.594;17.638;2022-10-16T01:14:58;14.05;;;10.02;;
62673;SDS011;62269;47.594;17.638;2022-10-16T01:17:14;11.98;;;10.73;;
62673;SDS011;62269;47.594;17.638;2022-10-16T01:19:33;11.32;;;9.60;;
62673;SDS011;62269;47.594;17.638;2022-10-16T01:20:39;11.80;;;10.20;;
62673;SDS011;62269;47.594;17.638;2022-10-16T01:21:44;13.25;;;10.90;;
62673;SDS011;62269;47.594;17.638;2022-10-16T01:23:20;14.48;;;10.85;;
62673;SDS011;62269;47.594;17.638;2022-10-16T01:24:03;14.18;;;10.55;;
62673;SDS011;62269;47.594;17.638;2022-10-16T01:24:55;15.52;;;10.93;;
62673;SDS011;62269;47.594;17.638;2022-10-16T01:27:48;15.30;;;10.60;;
62673;SDS011;62269;47.594;17.638;2022-10-16T01:28:49;15.32;;;10.80;;
62673;SDS011;62269;47.594;17.638;2022-10-16T01:30:41;14.15;;;10.95;;
62673;SDS011;62269;47.594;17.638;2022-10-16T01:31:30;14.77;;;10.50;;
62673;SDS011;62269;47.594;17.638;2022-10-16T01:32:28;14.82;;;10.60;;
62673;SDS011;62269;47.594;17.638;2022-10-16T01:33:20;13.18;;;10.65;;
62673;SDS011;62269;47.594;17.638;2022-10-16T01:34:14;14.57;;;11.50;;
62673;SDS011;62269;47.594;17.638;2022-10-16T01:35:05;16.87;;;10.90;;
62673;SDS011;62269;47.594;17.638;2022-10-16T01:36:03;16.05;;;11.43;;
62673;SDS011;62269;47.594;17.638;2022-10-16T01:36:58;11.90;;;10.50;;
62673;SDS011;62269;47.594;17.638;2022-10-16T01:38:50;14.77;;;10.98;;
62673;SDS011;62269;47.594;17.638;2022-10-16T01:39:39;11.85;;;10.38;;
62673;SDS011;62269;47.594;17.638;2022-10-16T01:40:28;16.67;;;11.52;;
62673;SDS011;62269;47.594;17.638;2022-10-16T01:42:08;14.45;;;11.38;;
62673;SDS011;62269;47.594;17.638;2022-10-16T01:43:12;13.10;;;10.50;;
62673;SDS011;62269;47.594;17.638;2022-10-16T01:44:10;16.37;;;10.73;;
62673;SDS011;62269;47.594;17.638;2022-10-16T01:45:00;12.50;;;10.10;;
62673;SDS011;62269;47.594;17.638;2022-10-16T01:45:47;15.43;;;11.25;;
62673;SDS011;62269;47.594;17.638;2022-10-16T01:46:36;11.95;;;10.15;;
62673;SDS011;62269;47.594;17.638;2022-10-16T01:47:27;11.85;;;10.65;;
62673;SDS011;62269;47.594;17.638;2022-10-16T01:48:17;12.85;;;10.00;;
62673;SDS011;62269;47.594;17.638;2022-10-16T01:49:05;13.30;;;10.75;;
62673;SDS011;62269;47.594;17.638;2022-10-16T01:49:53;12.02;;;10.55;;
62673;SDS011;62269;47.594;17.638;2022-10-16T01:50:41;11.30;;;10.10;;
62673;SDS011;62269;47.594;17.638;2022-10-16T01:51:29;12.98;;;10.57;;
62673;SDS011;62269;47.594;17.638;2022-10-16T01:52:18;11.55;;;10.25;;
62673;SDS011;62269;47.594;17.638;2022-10-16T01:53:08;12.30;;;10.90;;
62673;SDS011;62269;47.594;17.638;2022-10-16T01:53:59;12.05;;;10.13;;
62673;SDS011;62269;47.594;17.638;2022-10-16T01:54:47;14.52;;;11.27;;
62673;SDS011;62269;47.594;17.638;2022-10-16T01:55:37;12.23;;;10.50;;
62673;SDS011;62269;47.594;17.638;2022-10-16T01:56:28;14.87;;;11.02;;
62673;SDS011;62269;47.594;17.638;2022-10-16T01:57:16;12.95;;;10.55;;
62673;SDS011;62269;47.594;17.638;2022-10-16T01:58:05;13.07;;;11.65;;
62673;SDS011;62269;47.594;17.638;2022-10-16T01:58:54;11.65;;;10.45;;
62673;SDS011;62269;47.594;17.638;2022-10-16T01:59:45;12.35;;;10.63;;
62673;SDS011;62269;47.594;17.638;2022-10-16T02:00:36;12.52;;;10.25;;
62673;SDS011;62269;47.594;17.638;2022-10-16T02:01:25;11.85;;;10.65;;
62673;SDS011;62269;47.594;17.638;2022-10-16T02:02:13;12.90;;;10.65;;
62673;SDS011;62269;47.594;17.638;2022-10-16T02:03:01;14.48;;;10.95;;
62673;SDS011;62269;47.594;17.638;2022-10-16T02:03:50;11.52;;;10.23;;
62673;SDS011;62269;47.594;17.638;2022-10-16T02:04:43;14.02;;;10.50;;
62673;SDS011;62269;47.594;17.638;2022-10-16T02:06:39;13.90;;;10.32;;
62673;SDS011;62269;47.594;17.638;2022-10-16T02:07:25;10.35;;;9.25;;
62673;SDS011;62269;47.594;17.638;2022-10-16T02:08:13;13.75;;;10.00;;
62673;SDS011;62269;47.594;17.638;2022-10-16T02:09:00;12.05;;;10.68;;
62673;SDS011;62269;47.594;17.638;2022-10-16T02:09:47;18.95;;;10.82;;
62673;SDS011;62269;47.594;17.638;2022-10-16T02:10:35;12.85;;;10.95;;
62673;SDS011;62269;47.594;17.638;2022-10-16T02:11:22;16.80;;;11.88;;
62673;SDS011;62269;47.594;17.638;2022-10-16T02:12:11;11.98;;;10.40;;
62673;SDS011;62269;47.594;17.638;2022-10-16T02:13:12;13.45;;;11.68;;
62673;SDS011;62269;47.594;17.638;2022-10-16T02:14:03;16.83;;;11.77;;
62673;SDS011;62269;47.594;17.638;2022-10-16T02:14:52;15.40;;;12.63;;
62673;SDS011;62269;47.594;17.638;2022-10-16T02:15:39;14.98;;;11.05;;
62673;SDS011;62269;47.594;17.638;2022-10-16T02:16:37;16.75;;;11.43;;
62673;SDS011;62269;47.594;17.638;2022-10-16T02:17:26;13.50;;;11.52;;
62673;SDS011;62269;47.594;17.638;2022-10-16T02:18:14;13.98;;;12.37;;
62673;SDS011;62269;47.594;17.638;2022-10-16T02:19:01;13.55;;;11.75;;
62673;SDS011;62269;47.594;17.638;2022-10-16T02:19:49;13.57;;;11.27;;
62673;SDS011;62269;47.594;17.638;2022-10-16T02:20:41;16.83;;;11.63;;
62673;SDS011;62269;47.594;17.638;2022-10-16T02:23:24;15.73;;;12.90;;
62673;SDS011;62269;47.594;17.638;2022-10-16T02:24:33;12.73;;;11.32;;
62673;SDS011;62269;47.594;17.638;2022-10-16T02:25:40;12.93;;;11.52;;
62673;SDS011;62269;47.594;17.638;2022-10-16T02:26:47;15.00;;;12.10;;
62673;SDS011;62269;47.594;17.638;2022-10-16T02:27:47;15.25;;;12.18;;
62673;SDS011;62269;47.594;17.638;2022-10-16T02:28:44;14.05;;;12.60;;
62673;SDS011;62269;47.594;17.638;2022-10-16T02:29:34;16.92;;;12.52;;
62673;SDS011;62269;47.594;17.638;2022-10-16T02:31:41;14.73;;;11.85;;
62673;SDS011;62269;47.594;17.638;2022-10-16T02:33:19;15.88;;;11.57;;
62673;SDS011;62269;47.594;17.638;2022-10-16T02:34:07;16.58;;;12.93;;
62673;SDS011;62269;47.594;17.638;2022-10-16T02:34:57;20.48;;;13.35;;
62673;SDS011;62269;47.594;17.638;2022-10-16T02:35:45;14.95;;;12.85;;
62673;SDS011;62269;47.594;17.638;2022-10-16T02:36:33;17.42;;;12.93;;
62673;SDS011;62269;47.594;17.638;2022-10-16T02:37:22;15.77;;;12.55;;
62673;SDS011;62269;47.594;17.638;2022-10-16T02:38:09;15.95;;;12.27;;
62673;SDS011;62269;47.594;17.638;2022-10-16T02:39:01;14.27;;;12.77;;
62673;SDS011;62269;47.594;17.638;2022-10-16T02:39:50;13.18;;;11.77;;
62673;SDS011;62269;47.594;17.638;2022-10-16T02:40:37;15.75;;;12.60;;
62673;SDS011;62269;47.594;17.638;2022-10-16T02:41:24;14.35;;;12.55;;
62673;SDS011;62269;47.594;17.638;2022-10-16T02:42:12;15.38;;;11.70;;
62673;SDS011;62269;47.594;17.638;2022-10-16T02:43:00;15.93;;;12.30;;
62673;SDS011;62269;47.594;17.638;2022-10-16T02:43:50;13.70;;;12.25;;
62673;SDS011;62269;47.594;17.638;2022-10-16T02:44:37;12.88;;;11.43;;
62673;SDS011;62269;47.594;17.638;2022-10-16T02:45:24;16.52;;;12.37;;
62673;SDS011;62269;47.594;17.638;2022-10-16T02:46:11;17.00;;;13.23;;
62673;SDS011;62269;47.594;17.638;2022-10-16T02:46:58;15.38;;;11.68;;
62673;SDS011;62269;47.594;17.638;2022-10-16T02:47:45;16.23;;;12.52;;
62673;SDS011;62269;47.594;17.638;2022-10-16T02:48:32;18.90;;;12.68;;
62673;SDS011;62269;47.594;17.638;2022-10-16T02:49:19;17.12;;;12.77;;
62673;SDS011;62269;47.594;17.638;2022-10-16T02:50:06;14.60;;;12.77;;
62673;SDS011;62269;47.594;17.638;2022-10-16T02:50:53;15.40;;;12.00;;
62673;SDS011;62269;47.594;17.638;2022-10-16T02:51:40;14.02;;;12.02;;
62673;SDS011;62269;47.594;17.638;2022-10-16T02:52:26;15.48;;;11.85;;
62673;SDS011;62269;47.594;17.638;2022-10-16T02:53:14;13.95;;;12.27;;
62673;SDS011;62269;47.594;17.638;2022-10-16T02:54:01;14.95;;;12.57;;
62673;SDS011;62269;47.594;17.638;2022-10-16T02:54:49;15.30;;;12.57;;
62673;SDS011;62269;47.594;17.638;2022-10-16T02:55:36;15.80;;;12.23;;
62673;SDS011;62269;47.594;17.638;2022-10-16T02:56:23;13.48;;;11.98;;
62673;SDS011;62269;47.594;17.638;2022-10-16T02:57:10;15.05;;;11.98;;
62673;SDS011;62269;47.594;17.638;2022-10-16T02:57:58;13.57;;;12.13;;
62673;SDS011;62269;47.594;17.638;2022-10-16T02:58:45;16.05;;;13.07;;
62673;SDS011;62269;47.594;17.638;2022-10-16T02:59:31;14.77;;;12.07;;
62673;SDS011;62269;47.594;17.638;2022-10-16T03:00:18;16.55;;;12.13;;
62673;SDS011;62269;47.594;17.638;2022-10-16T03:01:05;15.32;;;12.05;;
62673;SDS011;62269;47.594;17.638;2022-10-16T03:01:52;14.93;;;11.95;;
62673;SDS011;62269;47.594;17.638;2022-10-16T03:02:39;14.52;;;11.68;;
62673;SDS011;62269;47.594;17.638;2022-10-16T03:03:26;14.73;;;12.93;;
62673;SDS011;62269;47.594;17.638;2022-10-16T03:04:13;18.62;;;12.73;;
62673;SDS011;62269;47.594;17.638;2022-10-16T03:05:00;15.32;;;12.20;;
62673;SDS011;62269;47.594;17.638;2022-10-16T03:05:47;14.57;;;12.40;;
62673;SDS011;62269;47.594;17.638;2022-10-16T03:06:34;16.55;;;13.13;;
62673;SDS011;62269;47.594;17.638;2022-10-16T03:07:21;13.85;;;12.15;;
62673;SDS011;62269;47.594;17.638;2022-10-16T03:08:08;17.42;;;11.57;;
62673;SDS011;62269;47.594;17.638;2022-10-16T03:08:55;14.65;;;12.37;;
62673;SDS011;62269;47.594;17.638;2022-10-16T03:09:42;14.55;;;12.68;;
62673;SDS011;62269;47.594;17.638;2022-10-16T03:10:29;16.60;;;11.40;;
62673;SDS011;62269;47.594;17.638;2022-10-16T03:11:16;13.55;;;12.15;;
62673;SDS011;62269;47.594;17.638;2022-10-16T03:12:03;17.67;;;12.02;;
62673;SDS011;62269;47.594;17.638;2022-10-16T03:12:50;16.77;;;13.93;;
62673;SDS011;62269;47.594;17.638;2022-10-16T03:13:37;16.73;;;12.80;;
62673;SDS011;62269;47.594;17.638;2022-10-16T03:14:24;15.38;;;12.70;;
62673;SDS011;62269;47.594;17.638;2022-10-16T03:15:11;13.38;;;11.90;;
62673;SDS011;62269;47.594;17.638;2022-10-16T03:15:58;17.73;;;13.05;;
62673;SDS011;62269;47.594;17.638;2022-10-16T03:16:45;14.35;;;12.07;;
62673;SDS011;62269;47.594;17.638;2022-10-16T03:17:32;15.93;;;12.25;;
62673;SDS011;62269;47.594;17.638;2022-10-16T03:18:19;16.33;;;13.30;;
62673;SDS011;62269;47.594;17.638;2022-10-16T03:19:06;15.32;;;11.82;;
62673;SDS011;62269;47.594;17.638;2022-10-16T03:19:53;14.98;;;12.63;;
62673;SDS011;62269;47.594;17.638;2022-10-16T03:20:40;14.55;;;12.90;;
62673;SDS011;62269;47.594;17.638;2022-10-16T03:21:27;13.80;;;11.73;;
62673;SDS011;62269;47.594;17.638;2022-10-16T03:22:14;16.67;;;12.75;;
62673;SDS011;62269;47.594;17.638;2022-10-16T03:23:01;14.75;;;13.00;;
62673;SDS011;62269;47.594;17.638;2022-10-16T03:23:49;14.23;;;12.30;;
62673;SDS011;62269;47.594;17.638;2022-10-16T03:24:35;17.73;;;12.85;;
62673;SDS011;62269;47.594;17.638;2022-10-16T03:25:22;14.65;;;11.77;;
62673;SDS011;62269;47.594;17.638;2022-10-16T03:26:09;17.67;;;12.68;;
62673;SDS011;62269;47.594;17.638;2022-10-16T03:26:56;16.23;;;11.90;;
62673;SDS011;62269;47.594;17.638;2022-10-16T03:27:43;13.05;;;11.63;;
62673;SDS011;62269;47.594;17.638;2022-10-16T03:28:31;14.10;;;12.20;;
62673;SDS011;62269;47.594;17.638;2022-10-16T03:29:17;14.87;;;12.90;;
62673;SDS011;62269;47.594;17.638;2022-10-16T03:30:05;14.07;;;11.90;;
62673;SDS011;62269;47.594;17.638;2022-10-16T03:30:52;15.05;;;12.60;;
62673;SDS011;62269;47.594;17.638;2022-10-16T03:31:39;18.62;;;12.65;;
62673;SDS011;62269;47.594;17.638;2022-10-16T03:32:26;14.65;;;13.13;;
62673;SDS011;62269;47.594;17.638;2022-10-16T03:33:15;13.43;;;12.02;;
62673;SDS011;62269;47.594;17.638;2022-10-16T03:34:02;16.02;;;12.48;;
62673;SDS011;62269;47.594;17.638;2022-10-16T03:34:48;16.08;;;13.40;;
62673;SDS011;62269;47.594;17.638;2022-10-16T03:35:35;13.90;;;12.02;;
62673;SDS011;62269;47.594;17.638;2022-10-16T03:36:22;18.37;;;12.75;;
62673;SDS011;62269;47.594;17.638;2022-10-16T03:37:09;16.77;;;12.80;;
62673;SDS011;62269;47.594;17.638;2022-10-16T03:37:56;15.95;;;13.65;;
62673;SDS011;62269;47.594;17.638;2022-10-16T03:38:43;15.10;;;13.18;;
62673;SDS011;62269;47.594;17.638;2022-10-16T03:39:30;14.40;;;12.90;;
62673;SDS011;62269;47.594;17.638;2022-10-16T03:40:17;14.50;;;12.65;;
62673;SDS011;62269;47.594;17.638;2022-10-16T03:41:04;15.68;;;12.25;;
62673;SDS011;62269;47.594;17.638;2022-10-16T03:41:51;13.52;;;12.10;;
62673;SDS011;62269;47.594;17.638;2022-10-16T03:42:38;16.52;;;12.57;;
62673;SDS011;62269;47.594;17.638;2022-10-16T03:43:25;13.93;;;12.48;;
62673;SDS011;62269;47.594;17.638;2022-10-16T03:44:12;14.87;;;12.02;;
62673;SDS011;62269;47.594;17.638;2022-10-16T03:44:59;15.48;;;13.68;;
62673;SDS011;62269;47.594;17.638;2022-10-16T03:45:46;14.70;;;13.20;;
62673;SDS011;62269;47.594;17.638;2022-10-16T03:46:33;15.57;;;12.55;;
62673;SDS011;62269;47.594;17.638;2022-10-16T03:47:20;16.48;;;13.00;;
62673;SDS011;62269;47.594;17.638;2022-10-16T03:48:10;13.68;;;12.23;;
62673;SDS011;62269;47.594;17.638;2022-10-16T03:48:57;15.57;;;13.62;;
62673;SDS011;62269;47.594;17.638;2022-10-16T03:49:44;14.70;;;12.85;;
62673;SDS011;62269;47.594;17.638;2022-10-16T03:50:31;14.48;;;12.52;;
62673;SDS011;62269;47.594;17.638;2022-10-16T03:51:18;15.35;;;13.25;;
62673;SDS011;62269;47.594;17.638;2022-10-16T03:52:05;15.95;;;12.02;;
62673;SDS011;62269;47.594;17.638;2022-10-16T03:52:52;16.70;;;13.55;;
62673;SDS011;62269;47.594;17.638;2022-10-16T03:53:39;17.10;;;12.73;;
62673;SDS011;62269;47.594;17.638;2022-10-16T03:54:26;14.77;;;12.70;;
62673;SDS011;62269;47.594;17.638;2022-10-16T03:55:13;16.37;;;13.15;;
62673;SDS011;62269;47.594;17.638;2022-10-16T03:56:00;14.93;;;13.35;;
62673;SDS011;62269;47.594;17.638;2022-10-16T03:56:47;14.07;;;12.57;;
62673;SDS011;62269;47.594;17.638;2022-10-16T03:57:34;14.20;;;12.68;;
62673;SDS011;62269;47.594;17.638;2022-10-16T03:58:21;15.40;;;13.68;;
62673;SDS011;62269;47.594;17.638;2022-10-16T03:59:08;16.95;;;13.35;;
62673;SDS011;62269;47.594;17.638;2022-10-16T03:59:54;15.23;;;13.62;;
62673;SDS011;62269;47.594;17.638;2022-10-16T04:00:44;15.50;;;13.68;;
62673;SDS011;62269;47.594;17.638;2022-10-16T04:01:32;15.70;;;13.40;;
62673;SDS011;62269;47.594;17.638;2022-10-16T04:02:19;13.62;;;12.02;;
62673;SDS011;62269;47.594;17.638;2022-10-16T04:03:06;20.05;;;14.07;;
62673;SDS011;62269;47.594;17.638;2022-10-16T04:03:53;16.25;;;12.80;;
62673;SDS011;62269;47.594;17.638;2022-10-16T04:04:40;14.68;;;12.23;;
62673;SDS011;62269;47.594;17.638;2022-10-16T04:05:27;16.42;;;12.65;;
62673;SDS011;62269;47.594;17.638;2022-10-16T04:06:14;17.37;;;12.77;;
62673;SDS011;62269;47.594;17.638;2022-10-16T04:07:01;15.57;;;13.57;;
62673;SDS011;62269;47.594;17.638;2022-10-16T04:07:48;16.15;;;12.68;;
62673;SDS011;62269;47.594;17.638;2022-10-16T04:08:35;16.92;;;13.18;;
62673;SDS011;62269;47.594;17.638;2022-10-16T04:09:23;15.18;;;13.18;;
62673;SDS011;62269;47.594;17.638;2022-10-16T04:10:10;15.23;;;13.62;;
62673;SDS011;62269;47.594;17.638;2022-10-16T04:10:57;16.25;;;13.93;;
62673;SDS011;62269;47.594;17.638;2022-10-16T04:11:43;16.02;;;13.57;;
62673;SDS011;62269;47.594;17.638;2022-10-16T04:12:30;17.75;;;14.63;;
62673;SDS011;62269;47.594;17.638;2022-10-16T04:13:17;16.85;;;13.57;;
62673;SDS011;62269;47.594;17.638;2022-10-16T04:14:05;17.00;;;13.93;;
62673;SDS011;62269;47.594;17.638;2022-10-16T04:14:52;16.33;;;13.73;;
62673;SDS011;62269;47.594;17.638;2022-10-16T04:15:39;15.80;;;13.80;;
62673;SDS011;62269;47.594;17.638;2022-10-16T04:16:26;15.05;;;13.45;;
62673;SDS011;62269;47.594;17.638;2022-10-16T04:17:13;20.23;;;13.77;;
62673;SDS011;62269;47.594;17.638;2022-10-16T04:18:00;15.30;;;13.52;;
62673;SDS011;62269;47.594;17.638;2022-10-16T04:18:47;15.60;;;13.55;;
62673;SDS011;62269;47.594;17.638;2022-10-16T04:19:34;17.10;;;14.18;;
62673;SDS011;62269;47.594;17.638;2022-10-16T04:20:21;16.55;;;14.38;;
62673;SDS011;62269;47.594;17.638;2022-10-16T04:21:08;15.32;;;13.45;;
62673;SDS011;62269;47.594;17.638;2022-10-16T04:21:55;19.48;;;13.88;;
62673;SDS011;62269;47.594;17.638;2022-10-16T04:22:42;17.12;;;14.05;;
62673;SDS011;62269;47.594;17.638;2022-10-16T04:23:28;18.90;;;14.30;;
62673;SDS011;62269;47.594;17.638;2022-10-16T04:24:15;16.15;;;13.38;;
62673;SDS011;62269;47.594;17.638;2022-10-16T04:25:02;17.37;;;14.48;;
62673;SDS011;62269;47.594;17.638;2022-10-16T04:25:50;15.43;;;13.82;;
62673;SDS011;62269;47.594;17.638;2022-10-16T04:26:37;17.73;;;13.80;;
62673;SDS011;62269;47.594;17.638;2022-10-16T04:27:24;18.25;;;13.85;;
62673;SDS011;62269;47.594;17.638;2022-10-16T04:28:12;16.25;;;14.13;;
62673;SDS011;62269;47.594;17.638;2022-10-16T04:28:59;17.42;;;15.43;;
62673;SDS011;62269;47.594;17.638;2022-10-16T04:29:46;16.17;;;14.48;;
62673;SDS011;62269;47.594;17.638;2022-10-16T04:30:33;18.60;;;13.73;;
62673;SDS011;62269;47.594;17.638;2022-10-16T04:31:20;17.87;;;14.68;;
62673;SDS011;62269;47.594;17.638;2022-10-16T04:32:08;17.00;;;14.77;;
62673;SDS011;62269;47.594;17.638;2022-10-16T04:32:55;17.42;;;14.23;;
62673;SDS011;62269;47.594;17.638;2022-10-16T04:33:43;15.40;;;13.62;;
62673;SDS011;62269;47.594;17.638;2022-10-16T04:34:30;17.77;;;14.52;;
62673;SDS011;62269;47.594;17.638;2022-10-16T04:35:17;15.25;;;13.65;;
62673;SDS011;62269;47.594;17.638;2022-10-16T04:36:05;17.50;;;14.55;;
62673;SDS011;62269;47.594;17.638;2022-10-16T04:36:52;17.20;;;14.18;;
62673;SDS011;62269;47.594;17.638;2022-10-16T04:37:39;18.02;;;14.40;;
62673;SDS011;62269;47.594;17.638;2022-10-16T04:38:26;17.52;;;14.23;;
62673;SDS011;62269;47.594;17.638;2022-10-16T04:39:13;16.25;;;14.50;;
62673;SDS011;62269;47.594;17.638;2022-10-16T04:40:00;16.48;;;13.62;;
62673;SDS011;62269;47.594;17.638;2022-10-16T04:40:47;18.42;;;14.32;;
62673;SDS011;62269;47.594;17.638;2022-10-16T04:41:34;17.12;;;14.87;;
62673;SDS011;62269;47.594;17.638;2022-10-16T04:42:21;16.52;;;14.73;;
62673;SDS011;62269;47.594;17.638;2022-10-16T04:43:07;17.70;;;15.55;;
62673;SDS011;62269;47.594;17.638;2022-10-16T04:43:55;17.55;;;15.02;;
62673;SDS011;62269;47.594;17.638;2022-10-16T04:44:42;23.48;;;14.00;;
62673;SDS011;62269;47.594;17.638;2022-10-16T04:45:29;16.20;;;14.35;;
62673;SDS011;62269;47.594;17.638;2022-10-16T04:46:16;20.20;;;14.90;;
62673;SDS011;62269;47.594;17.638;2022-10-16T04:47:03;18.10;;;15.20;;
62673;SDS011;62269;47.594;17.638;2022-10-16T04:47:51;18.08;;;15.43;;
62673;SDS011;62269;47.594;17.638;2022-10-16T04:48:37;20.02;;;16.50;;
62673;SDS011;62269;47.594;17.638;2022-10-16T04:49:24;21.17;;;16.20;;
62673;SDS011;62269;47.594;17.638;2022-10-16T04:50:11;19.52;;;15.40;;
62673;SDS011;62269;47.594;17.638;2022-10-16T04:50:58;20.50;;;15.57;;
62673;SDS011;62269;47.594;17.638;2022-10-16T04:51:45;18.67;;;16.10;;
62673;SDS011;62269;47.594;17.638;2022-10-16T04:52:32;18.70;;;16.67;;
62673;SDS011;62269;47.594;17.638;2022-10-16T04:53:20;21.12;;;16.85;;
62673;SDS011;62269;47.594;17.638;2022-10-16T04:54:08;19.20;;;15.65;;
62673;SDS011;62269;47.594;17.638;2022-10-16T04:54:56;17.90;;;15.88;;
62673;SDS011;62269;47.594;17.638;2022-10-16T04:55:47;20.42;;;17.27;;
62673;SDS011;62269;47.594;17.638;2022-10-16T04:56:33;20.67;;;16.87;;
62673;SDS011;62269;47.594;17.638;2022-10-16T04:57:26;18.15;;;15.63;;
62673;SDS011;62269;47.594;17.638;2022-10-16T04:58:14;19.02;;;16.02;;
62673;SDS011;62269;47.594;17.638;2022-10-16T04:59:01;18.08;;;14.87;;
62673;SDS011;62269;47.594;17.638;2022-10-16T04:59:48;19.62;;;15.93;;
62673;SDS011;62269;47.594;17.638;2022-10-16T05:00:35;19.15;;;16.15;;
62673;SDS011;62269;47.594;17.638;2022-10-16T05:01:22;18.95;;;15.55;;
62673;SDS011;62269;47.594;17.638;2022-10-16T05:02:09;20.23;;;16.40;;